Terminal Aerodrome Forecast
Issued by NWS

Current Version | Previous Version | Text Only | Print | Product List | Glossary On
Versions: 1 2 3 4 5 6 7 8 9 10 11 12 13 14 15 16 17 18 19 20 21 22 23 24 25
000
FTUS43 KABR 110522
TAFATY
TAF
KATY 110522Z 1106/1206 VRB05KT P6SM BKN110
     FM110800 28013KT P6SM SCT200
     FM111000 30015G23KT P6SM VCSH BKN060
     FM111200 32020G30KT P6SM VCSH OVC015
     FM120000 34014G23KT P6SM SCT020
     FM120500 33009KT P6SM SCT080=

USA.gov is the U.S. government's official web portal to all federal, state and local government web resources and services.